PWSweather.com
Personal Weather Stations
Station Observations
KMIEASTT1
Tawas Bay, East Tawas, MI 48730

Tawas BayEast Tawas, MI 48730

Lat: 44.28, Lon: -83.48

Elevation: 600

Station Type: Davis VantagePro

http://www.tawasbayweather.com

High Low Average
Temperature 54.3°F12.4°F 35.0°F1.7°F 42.4°F5.8°F
Dew Point 50.5°F10.3°F 31.7°F-0.2°F 39.1°F3.9°F
Winds 18.0 mph S29.0 mph S Calm Calm 4.3 mph 6.9 mph
Wind Gusts 22.0 mph35.4 mph -- 8.1 mph13.0 mph
Humidity 100% 64% 89%
Pressure 29.93 in1013.50 in 29.56 in1001.00 in -
Precipitation 0.00 in0.00 in - -
Hour Temp Dew Point Humidity Winds Wind Gusts Pressure Precip Precip Rate Daily Precip Total
12:00 AM 38.2°F3.4°C 37.7°F3.2°C 98% 4.0 mph ESE6.4 kmh ESE 5.0 mph8.0 kmh 29.62 in1003.0 mb 0.00 in0.0 mm 0.00 in0.0 mm 0.00 in0.0 mm
12:15 AM 38.9°F3.8°C 38.6°F3.7°C 99% 4.0 mph ESE6.4 kmh ESE 5.0 mph8.0 kmh 29.61 in1002.7 mb 0.00 in0.0 mm 0.00 in0.0 mm 0.00 in0.0 mm
12:30 AM 38.4°F3.6°C 38.1°F3.4°C 99% 5.0 mph SE8.0 kmh SE 7.0 mph11.3 kmh 29.60 in1002.4 mb 0.00 in0.0 mm 0.00 in0.0 mm 0.00 in0.0 mm
12:45 AM 38.8°F3.8°C 38.5°F3.6°C 99% 6.0 mph SE9.7 kmh SE 7.0 mph11.3 kmh 29.60 in1002.4 mb 0.00 in0.0 mm 0.00 in0.0 mm 0.00 in0.0 mm
01:00 AM 37.9°F3.3°C 37.6°F3.1°C 99% 4.0 mph SE6.4 kmh SE 7.0 mph11.3 kmh 29.59 in1002.0 mb 0.00 in0.0 mm 0.00 in0.0 mm 0.00 in0.0 mm
01:15 AM 38.8°F3.8°C 38.5°F3.6°C 99% 4.0 mph S6.4 kmh S 7.0 mph11.3 kmh 29.59 in1002.0 mb 0.00 in0.0 mm 0.00 in0.0 mm 0.00 in0.0 mm
01:30 AM 39.0°F3.9°C 38.7°F3.7°C 99% 5.0 mph S8.0 kmh S 8.0 mph12.9 kmh 29.58 in1001.7 mb 0.00 in0.0 mm 0.00 in0.0 mm 0.00 in0.0 mm
01:45 AM 38.9°F3.8°C 38.6°F3.7°C 99% 6.0 mph S9.7 kmh S 8.0 mph12.9 kmh 29.58 in1001.7 mb 0.00 in0.0 mm 0.00 in0.0 mm 0.00 in0.0 mm
02:00 AM 38.6°F3.7°C 38.3°F3.5°C 99% 2.0 mph S3.2 kmh S 5.0 mph8.0 kmh 29.58 in1001.7 mb 0.00 in0.0 mm 0.00 in0.0 mm 0.00 in0.0 mm
02:15 AM 38.9°F3.8°C 38.6°F3.7°C 99% 4.0 mph S6.4 kmh S 8.0 mph12.9 kmh 29.58 in1001.7 mb 0.00 in0.0 mm 0.00 in0.0 mm 0.00 in0.0 mm
02:30 AM 38.7°F3.7°C 38.4°F3.6°C 99% 5.0 mph S8.0 kmh S 8.0 mph12.9 kmh 29.57 in1001.4 mb 0.00 in0.0 mm 0.00 in0.0 mm 0.00 in0.0 mm
02:45 AM 38.5°F3.6°C 38.2°F3.4°C 99% 2.0 mph S3.2 kmh S 5.0 mph8.0 kmh 29.57 in1001.4 mb 0.00 in0.0 mm 0.00 in0.0 mm 0.00 in0.0 mm
03:00 AM 38.2°F3.4°C 37.9°F3.3°C 99% 3.0 mph SE4.8 kmh SE 4.0 mph6.4 kmh 29.57 in1001.4 mb 0.00 in0.0 mm 0.00 in0.0 mm 0.00 in0.0 mm
03:15 AM 38.1°F3.4°C 37.8°F3.2°C 99% 3.0 mph ESE4.8 kmh ESE 3.0 mph4.8 kmh 29.56 in1001.0 mb 0.00 in0.0 mm 0.00 in0.0 mm 0.00 in0.0 mm
03:30 AM 38.9°F3.8°C 38.6°F3.7°C 99% 3.0 mph SE4.8 kmh SE 4.0 mph6.4 kmh 29.56 in1001.0 mb 0.00 in0.0 mm 0.00 in0.0 mm 0.00 in0.0 mm
03:45 AM 39.2°F4.0°C 38.9°F3.8°C 99% 2.0 mph ESE3.2 kmh ESE 3.0 mph4.8 kmh 29.56 in1001.0 mb 0.00 in0.0 mm 0.00 in0.0 mm 0.00 in0.0 mm
04:00 AM 39.4°F4.1°C 39.1°F3.9°C 99% Calm Calm 3.0 mph4.8 kmh 29.56 in1001.0 mb 0.00 in0.0 mm 0.00 in0.0 mm 0.00 in0.0 mm
04:15 AM 39.6°F4.2°C 39.3°F4.1°C 99% Calm Calm 1.0 mph1.6 kmh 29.56 in1001.0 mb 0.00 in0.0 mm 0.00 in0.0 mm 0.00 in0.0 mm
04:30 AM 39.6°F4.2°C 39.3°F4.1°C 99% 1.0 mph SE1.6 kmh SE 2.0 mph3.2 kmh 29.56 in1001.0 mb 0.00 in0.0 mm 0.00 in0.0 mm 0.00 in0.0 mm
04:45 AM 39.5°F4.2°C 39.2°F4.0°C 99% Calm Calm 2.0 mph3.2 kmh 29.56 in1001.0 mb 0.00 in0.0 mm 0.00 in0.0 mm 0.00 in0.0 mm
05:00 AM 39.1°F3.9°C 38.8°F3.8°C 99% Calm Calm 2.0 mph3.2 kmh 29.56 in1001.0 mb 0.00 in0.0 mm 0.00 in0.0 mm 0.00 in0.0 mm
05:15 AM 37.5°F3.1°C 37.3°F2.9°C 99% Calm Calm 4.0 mph6.4 kmh 29.56 in1001.0 mb 0.00 in0.0 mm 0.00 in0.0 mm 0.00 in0.0 mm
05:30 AM 38.8°F3.8°C 38.5°F3.6°C 99% 2.0 mph SSW3.2 kmh SSW 4.0 mph6.4 kmh 29.57 in1001.4 mb 0.00 in0.0 mm 0.00 in0.0 mm 0.00 in0.0 mm
05:45 AM 40.6°F4.8°C 40.3°F4.6°C 99% 1.0 mph SW1.6 kmh SW 1.0 mph1.6 kmh 29.57 in1001.4 mb 0.00 in0.0 mm 0.00 in0.0 mm 0.00 in0.0 mm
06:00 AM 40.3°F4.6°C 40.0°F4.4°C 99% 1.0 mph SSE1.6 kmh SSE 2.0 mph3.2 kmh 29.57 in1001.4 mb 0.00 in0.0 mm 0.00 in0.0 mm 0.00 in0.0 mm
06:15 AM 46.0°F7.8°C 45.7°F7.6°C 99% 4.0 mph WSW6.4 kmh WSW 8.0 mph12.9 kmh 29.57 in1001.4 mb 0.00 in0.0 mm 0.00 in0.0 mm 0.00 in0.0 mm
06:30 AM 46.5°F8.1°C 46.2°F7.9°C 99% 9.0 mph WSW14.5 kmh WSW 10.0 mph16.1 kmh 29.57 in1001.4 mb 0.00 in0.0 mm 0.00 in0.0 mm 0.00 in0.0 mm
06:45 AM 48.8°F9.3°C 48.5°F9.2°C 99% 5.0 mph W8.0 kmh W 10.0 mph16.1 kmh 29.57 in1001.4 mb 0.00 in0.0 mm 0.00 in0.0 mm 0.00 in0.0 mm
07:00 AM 50.5°F10.3°C 50.5°F10.3°C 100% 3.0 mph WSW4.8 kmh WSW 11.0 mph17.7 kmh 29.57 in1001.4 mb 0.00 in0.0 mm 0.00 in0.0 mm 0.00 in0.0 mm
07:15 AM 50.3°F10.2°C 50.0°F10.0°C 99% 5.0 mph WNW8.0 kmh WNW 12.0 mph19.3 kmh 29.57 in1001.4 mb 0.00 in0.0 mm 0.00 in0.0 mm 0.00 in0.0 mm
07:30 AM 50.6°F10.3°C 50.3°F10.2°C 99% 11.0 mph NW17.7 kmh NW 12.0 mph19.3 kmh 29.58 in1001.7 mb 0.00 in0.0 mm 0.00 in0.0 mm 0.00 in0.0 mm
07:45 AM 50.6°F10.3°C 50.1°F10.1°C 98% 4.0 mph W6.4 kmh W 11.0 mph17.7 kmh 29.59 in1002.0 mb 0.00 in0.0 mm 0.00 in0.0 mm 0.00 in0.0 mm
08:00 AM 50.4°F10.2°C 49.6°F9.8°C 97% 12.0 mph W19.3 kmh W 12.0 mph19.3 kmh 29.60 in1002.4 mb 0.00 in0.0 mm 0.00 in0.0 mm 0.00 in0.0 mm
08:15 AM 50.4°F10.2°C 48.2°F9.0°C 92% 11.0 mph W17.7 kmh W 15.0 mph24.1 kmh 29.61 in1002.7 mb 0.00 in0.0 mm 0.00 in0.0 mm 0.00 in0.0 mm
08:30 AM 48.8°F9.3°C 45.7°F7.6°C 89% 11.0 mph NW17.7 kmh NW 17.0 mph27.4 kmh 29.63 in1003.4 mb 0.00 in0.0 mm 0.00 in0.0 mm 0.00 in0.0 mm
08:45 AM 48.1°F8.9°C 44.7°F7.1°C 88% 5.0 mph WNW8.0 kmh WNW 12.0 mph19.3 kmh 29.64 in1003.7 mb 0.00 in0.0 mm 0.00 in0.0 mm 0.00 in0.0 mm
09:00 AM 48.0°F8.9°C 44.3°F6.8°C 87% 7.0 mph NNW11.3 kmh NNW 13.0 mph20.9 kmh 29.65 in1004.1 mb 0.00 in0.0 mm 0.00 in0.0 mm 0.00 in0.0 mm
09:15 AM 47.8°F8.8°C 43.8°F6.6°C 86% 5.0 mph NW8.0 kmh NW 17.0 mph27.4 kmh 29.66 in1004.4 mb 0.00 in0.0 mm 0.00 in0.0 mm 0.00 in0.0 mm
09:30 AM 47.2°F8.4°C 43.2°F6.2°C 86% 5.0 mph WSW8.0 kmh WSW 13.0 mph20.9 kmh 29.67 in1004.7 mb 0.00 in0.0 mm 0.00 in0.0 mm 0.00 in0.0 mm
09:45 AM 47.0°F8.3°C 42.7°F5.9°C 85% 6.0 mph NW9.7 kmh NW 14.0 mph22.5 kmh 29.69 in1005.4 mb 0.00 in0.0 mm 0.00 in0.0 mm 0.00 in0.0 mm
10:00 AM 46.8°F8.2°C 42.5°F5.8°C 85% 2.0 mph NW3.2 kmh NW 15.0 mph24.1 kmh 29.70 in1005.8 mb 0.00 in0.0 mm 0.00 in0.0 mm 0.00 in0.0 mm
10:15 AM 46.8°F8.2°C 41.9°F5.5°C 83% 9.0 mph NW14.5 kmh NW 13.0 mph20.9 kmh 29.71 in1006.1 mb 0.00 in0.0 mm 0.00 in0.0 mm 0.00 in0.0 mm
10:30 AM 47.0°F8.3°C 42.1°F5.6°C 83% 3.0 mph WNW4.8 kmh WNW 12.0 mph19.3 kmh 29.72 in1006.4 mb 0.00 in0.0 mm 0.00 in0.0 mm 0.00 in0.0 mm
10:45 AM 47.0°F8.3°C 41.8°F5.4°C 82% 8.0 mph NW12.9 kmh NW 13.0 mph20.9 kmh 29.73 in1006.8 mb 0.00 in0.0 mm 0.00 in0.0 mm 0.00 in0.0 mm
11:00 AM 46.7°F8.2°C 41.5°F5.3°C 82% 5.0 mph NW8.0 kmh NW 12.0 mph19.3 kmh 29.73 in1006.8 mb 0.00 in0.0 mm 0.00 in0.0 mm 0.00 in0.0 mm
11:15 AM 46.5°F8.1°C 41.0°F5.0°C 81% 3.0 mph NNW4.8 kmh NNW 15.0 mph24.1 kmh 29.74 in1007.1 mb 0.00 in0.0 mm 0.00 in0.0 mm 0.00 in0.0 mm
11:30 AM 46.7°F8.2°C 41.2°F5.1°C 81% 5.0 mph NW8.0 kmh NW 13.0 mph20.9 kmh 29.75 in1007.5 mb 0.00 in0.0 mm 0.00 in0.0 mm 0.00 in0.0 mm
11:45 AM 47.0°F8.3°C 41.2°F5.1°C 80% 6.0 mph NW9.7 kmh NW 14.0 mph22.5 kmh 29.75 in1007.5 mb 0.00 in0.0 mm 0.00 in0.0 mm 0.00 in0.0 mm
12:00 PM 48.2°F9.0°C 41.3°F5.2°C 77% 6.0 mph NW9.7 kmh NW 12.0 mph19.3 kmh 29.75 in1007.5 mb 0.00 in0.0 mm 0.00 in0.0 mm 0.00 in0.0 mm
12:15 PM 48.8°F9.3°C 41.2°F5.1°C 75% 3.0 mph NW4.8 kmh NW 11.0 mph17.7 kmh 29.75 in1007.5 mb 0.00 in0.0 mm 0.00 in0.0 mm 0.00 in0.0 mm
12:30 PM 50.3°F10.2°C 42.3°F5.7°C 74% 3.0 mph N4.8 kmh N 12.0 mph19.3 kmh 29.75 in1007.5 mb 0.00 in0.0 mm 0.00 in0.0 mm 0.00 in0.0 mm
12:45 PM 51.4°F10.8°C 42.0°F5.6°C 70% 4.0 mph NW6.4 kmh NW 7.0 mph11.3 kmh 29.76 in1007.8 mb 0.00 in0.0 mm 0.00 in0.0 mm 0.00 in0.0 mm
01:00 PM 51.6°F10.9°C 41.4°F5.2°C 68% 5.0 mph WSW8.0 kmh WSW 9.0 mph14.5 kmh 29.76 in1007.8 mb 0.00 in0.0 mm 0.00 in0.0 mm 0.00 in0.0 mm
01:15 PM 52.4°F11.3°C 42.2°F5.7°C 68% 2.0 mph NW3.2 kmh NW 8.0 mph12.9 kmh 29.77 in1008.1 mb 0.00 in0.0 mm 0.00 in0.0 mm 0.00 in0.0 mm
01:30 PM 52.1°F11.2°C 41.9°F5.5°C 68% 3.0 mph NW4.8 kmh NW 6.0 mph9.7 kmh 29.78 in1008.5 mb 0.00 in0.0 mm 0.00 in0.0 mm 0.00 in0.0 mm
01:45 PM 51.8°F11.0°C 41.6°F5.3°C 68% 2.0 mph WNW3.2 kmh WNW 7.0 mph11.3 kmh 29.78 in1008.5 mb 0.00 in0.0 mm 0.00 in0.0 mm 0.00 in0.0 mm
02:00 PM 54.3°F12.4°C 42.4°F5.8°C 64% 2.0 mph NNE3.2 kmh NNE 9.0 mph14.5 kmh 29.78 in1008.5 mb 0.00 in0.0 mm 0.00 in0.0 mm 0.00 in0.0 mm
02:15 PM 51.5°F10.8°C 39.7°F4.3°C 64% 7.0 mph E11.3 kmh E 7.0 mph11.3 kmh 29.79 in1008.8 mb 0.00 in0.0 mm 0.00 in0.0 mm 0.00 in0.0 mm
02:30 PM 43.4°F6.3°C 37.0°F2.8°C 78% 7.0 mph E11.3 kmh E 11.0 mph17.7 kmh 29.80 in1009.1 mb 0.00 in0.0 mm 0.00 in0.0 mm 0.00 in0.0 mm
02:45 PM 41.7°F5.4°C 36.6°F2.6°C 82% 6.0 mph E9.7 kmh E 9.0 mph14.5 kmh 29.82 in1009.8 mb 0.00 in0.0 mm 0.00 in0.0 mm 0.00 in0.0 mm
03:00 PM 41.5°F5.3°C 37.3°F2.9°C 85% 5.0 mph E8.0 kmh E 8.0 mph12.9 kmh 29.82 in1009.8 mb 0.00 in0.0 mm 0.00 in0.0 mm 0.00 in0.0 mm
03:15 PM 41.2°F5.1°C 36.7°F2.6°C 84% 2.0 mph E3.2 kmh E 7.0 mph11.3 kmh 29.82 in1009.8 mb 0.00 in0.0 mm 0.00 in0.0 mm 0.00 in0.0 mm
03:30 PM 44.7°F7.1°C 39.2°F4.0°C 81% Calm Calm 4.0 mph6.4 kmh 29.83 in1010.2 mb 0.00 in0.0 mm 0.00 in0.0 mm 0.00 in0.0 mm
03:45 PM 48.8°F9.3°C 40.2°F4.6°C 72% Calm Calm 4.0 mph6.4 kmh 29.83 in1010.2 mb 0.00 in0.0 mm 0.00 in0.0 mm 0.00 in0.0 mm
04:00 PM 49.7°F9.8°C 40.0°F4.4°C 69% 6.0 mph NW9.7 kmh NW 6.0 mph9.7 kmh 29.84 in1010.5 mb 0.00 in0.0 mm 0.00 in0.0 mm 0.00 in0.0 mm
04:15 PM 50.0°F10.0°C 39.5°F4.2°C 67% 2.0 mph N3.2 kmh N 5.0 mph8.0 kmh 29.85 in1010.8 mb 0.00 in0.0 mm 0.00 in0.0 mm 0.00 in0.0 mm
04:30 PM 47.9°F8.8°C 37.1°F2.8°C 66% 6.0 mph WSW9.7 kmh WSW 9.0 mph14.5 kmh 29.86 in1011.2 mb 0.00 in0.0 mm 0.00 in0.0 mm 0.00 in0.0 mm
04:45 PM 36.7°F2.6°C 33.5°F0.8°C 88% 4.0 mph WSW6.4 kmh WSW 4.0 mph6.4 kmh 29.87 in1011.5 mb 0.00 in0.0 mm 0.00 in0.0 mm 0.00 in0.0 mm
05:00 PM 36.4°F2.4°C 34.0°F1.1°C 91% 9.0 mph ESE14.5 kmh ESE 9.0 mph14.5 kmh 29.87 in1011.5 mb 0.00 in0.0 mm 0.00 in0.0 mm 0.00 in0.0 mm
05:15 PM 35.1°F1.7°C 33.0°F0.6°C 92% 4.0 mph ESE6.4 kmh ESE 7.0 mph11.3 kmh 29.88 in1011.9 mb 0.00 in0.0 mm 0.00 in0.0 mm 0.00 in0.0 mm
05:30 PM 35.0°F1.7°C 33.2°F0.7°C 93% 6.0 mph E9.7 kmh E 7.0 mph11.3 kmh 29.88 in1011.9 mb 0.00 in0.0 mm 0.00 in0.0 mm 0.00 in0.0 mm
05:45 PM 35.3°F1.8°C 33.5°F0.8°C 93% 6.0 mph E9.7 kmh E 6.0 mph9.7 kmh 29.89 in1012.2 mb 0.00 in0.0 mm 0.00 in0.0 mm 0.00 in0.0 mm
06:00 PM 35.1°F1.7°C 33.6°F0.9°C 94% 6.0 mph E9.7 kmh E 6.0 mph9.7 kmh 29.90 in1012.5 mb 0.00 in0.0 mm 0.00 in0.0 mm 0.00 in0.0 mm
06:15 PM 35.8°F2.1°C 34.3°F1.3°C 94% 6.0 mph E9.7 kmh E 8.0 mph12.9 kmh 29.89 in1012.2 mb 0.00 in0.0 mm 0.00 in0.0 mm 0.00 in0.0 mm
06:30 PM 37.1°F2.8°C 35.3°F1.8°C 93% 2.0 mph E3.2 kmh E 6.0 mph9.7 kmh 29.89 in1012.2 mb 0.00 in0.0 mm 0.00 in0.0 mm 0.00 in0.0 mm
06:45 PM 37.4°F3.0°C 35.3°F1.8°C 92% Calm Calm 5.0 mph8.0 kmh 29.90 in1012.5 mb 0.00 in0.0 mm 0.00 in0.0 mm 0.00 in0.0 mm
07:00 PM 37.4°F3.0°C 35.0°F1.7°C 91% Calm Calm 7.0 mph11.3 kmh 29.89 in1012.2 mb 0.00 in0.0 mm 0.00 in0.0 mm 0.00 in0.0 mm
07:15 PM 37.3°F2.9°C 34.6°F1.4°C 90% 4.0 mph ENE6.4 kmh ENE 8.0 mph12.9 kmh 29.90 in1012.5 mb 0.00 in0.0 mm 0.00 in0.0 mm 0.00 in0.0 mm
07:30 PM 37.2°F2.9°C 34.5°F1.4°C 90% Calm Calm 4.0 mph6.4 kmh 29.90 in1012.5 mb 0.00 in0.0 mm 0.00 in0.0 mm 0.00 in0.0 mm
07:45 PM 37.5°F3.1°C 34.8°F1.6°C 90% Calm Calm 1.0 mph1.6 kmh 29.91 in1012.9 mb 0.00 in0.0 mm 0.00 in0.0 mm 0.00 in0.0 mm
08:00 PM 37.8°F3.2°C 34.9°F1.6°C 89% Calm Calm 3.0 mph4.8 kmh 29.91 in1012.9 mb 0.00 in0.0 mm 0.00 in0.0 mm 0.00 in0.0 mm
08:15 PM 37.7°F3.2°C 34.8°F1.6°C 89% Calm Calm 3.0 mph4.8 kmh 29.91 in1012.9 mb 0.00 in0.0 mm 0.00 in0.0 mm 0.00 in0.0 mm
08:30 PM 37.8°F3.2°C 34.6°F1.4°C 88% Calm Calm -- 29.93 in1013.5 mb 0.00 in0.0 mm 0.00 in0.0 mm 0.00 in0.0 mm
08:45 PM 38.2°F3.4°C 35.0°F1.7°C 88% Calm Calm 1.0 mph1.6 kmh 29.93 in1013.5 mb 0.00 in0.0 mm 0.00 in0.0 mm 0.00 in0.0 mm
09:00 PM 38.1°F3.4°C 34.6°F1.4°C 87% Calm Calm 3.0 mph4.8 kmh 29.93 in1013.5 mb 0.00 in0.0 mm 0.00 in0.0 mm 0.00 in0.0 mm
09:15 PM 38.3°F3.5°C 34.5°F1.4°C 86% 2.0 mph NE3.2 kmh NE 2.0 mph3.2 kmh 29.93 in1013.5 mb 0.00 in0.0 mm 0.00 in0.0 mm 0.00 in0.0 mm
09:30 PM 37.6°F3.1°C 34.7°F1.5°C 89% 10.0 mph SSE16.1 kmh SSE 11.0 mph17.7 kmh 29.93 in1013.5 mb 0.00 in0.0 mm 0.00 in0.0 mm 0.00 in0.0 mm
09:45 PM 37.6°F3.1°C 34.4°F1.3°C 88% 18.0 mph S29.0 kmh S 19.0 mph30.6 kmh 29.90 in1012.5 mb 0.00 in0.0 mm 0.00 in0.0 mm 0.00 in0.0 mm
10:00 PM 37.3°F2.9°C 34.1°F1.2°C 88% 9.0 mph S14.5 kmh S 15.0 mph24.1 kmh 29.89 in1012.2 mb 0.00 in0.0 mm 0.00 in0.0 mm 0.00 in0.0 mm
10:15 PM 37.1°F2.8°C 34.2°F1.2°C 89% 7.0 mph S11.3 kmh S 10.0 mph16.1 kmh 29.90 in1012.5 mb 0.00 in0.0 mm 0.00 in0.0 mm 0.00 in0.0 mm
10:30 PM 37.0°F2.8°C 33.8°F1.0°C 88% 2.0 mph S3.2 kmh S 6.0 mph9.7 kmh 29.92 in1013.2 mb 0.00 in0.0 mm 0.00 in0.0 mm 0.00 in0.0 mm
10:45 PM 36.8°F2.7°C 33.6°F0.9°C 88% 10.0 mph S16.1 kmh S 11.0 mph17.7 kmh 29.92 in1013.2 mb 0.00 in0.0 mm 0.00 in0.0 mm 0.00 in0.0 mm
11:00 PM 36.4°F2.4°C 32.9°F0.5°C 87% 12.0 mph S19.3 kmh S 15.0 mph24.1 kmh 29.92 in1013.2 mb 0.00 in0.0 mm 0.00 in0.0 mm 0.00 in0.0 mm
11:15 PM 36.2°F2.3°C 33.0°F0.6°C 88% 7.0 mph SSW11.3 kmh SSW 9.0 mph14.5 kmh 29.92 in1013.2 mb 0.00 in0.0 mm 0.00 in0.0 mm 0.00 in0.0 mm
11:30 PM 36.0°F2.2°C 32.5°F0.3°C 87% 8.0 mph S12.9 kmh S 22.0 mph35.4 kmh 29.89 in1012.2 mb 0.00 in0.0 mm 0.00 in0.0 mm 0.00 in0.0 mm
11:45 PM 35.8°F2.1°C 31.7°F-0.2°C 85% Calm Calm 8.0 mph12.9 kmh 29.93 in1013.5 mb 0.00 in0.0 mm 0.00 in0.0 mm 0.00 in0.0 mm